Time;durP1;ratioP1;P1;durP2;ratioP2;P2;SDS_P1;SDS_P2;PMS_P1;PMS_P2;Temp;Humidity;BMP_temperature;BMP_pressure;BME280_temperature;BME280_humidity;BME280_pressure;Samples;Min_cycle;Max_cycle;Signal;HPM_P1;HPM_P2
2021/05/27 00:02:03;;;;;;;4.00;2.00;;;19.30;87.90;;;;;;4802936;29;20069;-92
2021/05/27 00:04:28;;;;;;;8.30;2.95;;;19.30;87.80;;;;;;4803087;29;20280;-92
2021/05/27 00:06:54;;;;;;;7.17;2.83;;;19.40;87.80;;;;;;4802753;29;20039;-91
2021/05/27 00:09:20;;;;;;;7.18;4.13;;;19.30;87.90;;;;;;4800983;29;20375;-92
2021/05/27 00:11:46;;;;;;;9.77;3.97;;;19.20;87.90;;;;;;4802438;29;20473;-92
2021/05/27 00:14:12;;;;;;;7.45;3.67;;;19.20;87.90;;;;;;4787854;29;20050;-91
2021/05/27 00:16:38;;;;;;;11.63;5.05;;;19.20;88.10;;;;;;4787848;29;20037;-91
2021/05/27 00:19:04;;;;;;;12.07;4.50;;;19.20;88.10;;;;;;4787821;29;20023;-91
2021/05/27 00:21:30;;;;;;;9.30;3.20;;;19.20;88.00;;;;;;4787667;29;20289;-92
2021/05/27 00:23:57;;;;;;;9.38;3.05;;;19.10;87.90;;;;;;4787741;29;20421;-92
2021/05/27 00:26:23;;;;;;;4.22;2.33;;;19.10;87.80;;;;;;4787722;29;20035;-93
2021/05/27 00:28:51;;;;;;;5.63;2.10;;;18.90;88.00;;;;;;4788167;29;20055;-92
2021/05/27 00:31:17;;;;;;;4.53;2.35;;;18.90;87.70;;;;;;4804060;29;20026;-90
2021/05/27 00:33:43;;;;;;;3.40;2.30;;;19.00;87.60;;;;;;4803654;29;20452;-92
2021/05/27 00:36:09;;;;;;;5.80;2.13;;;19.00;87.50;;;;;;4788036;29;20154;-91
2021/05/27 00:38:35;;;;;;;5.05;1.90;;;18.90;87.30;;;;;;4787655;29;20725;-92
2021/05/27 00:41:01;;;;;;;4.35;1.90;;;18.90;87.20;;;;;;4787455;29;20070;-92
2021/05/27 00:43:27;;;;;;;5.18;2.15;;;19.00;87.10;;;;;;4787471;29;20063;-91
2021/05/27 00:45:53;;;;;;;4.47;1.80;;;19.00;86.90;;;;;;4777233;29;20074;-91
2021/05/27 00:51:04;;;;;;;3.97;1.50;;;18.80;87.00;;;;;;4784157;29;20043;-91
2021/05/27 00:53:30;;;;;;;5.15;2.13;;;18.80;87.10;;;;;;4784420;29;20085;-92
2021/05/27 00:55:56;;;;;;;5.82;2.63;;;18.80;87.00;;;;;;4785861;29;20039;-91
2021/05/27 00:58:26;;;;;;;2.25;1.42;;;18.80;86.90;;;;;;4787982;29;20042;-92
2021/05/27 01:00:52;;;;;;;3.40;1.77;;;18.90;86.80;;;;;;4787764;29;20042;-91
2021/05/27 01:03:19;;;;;;;3.35;1.45;;;18.90;86.30;;;;;;4787872;29;20036;-91
2021/05/27 01:05:46;;;;;;;3.25;1.30;;;19.00;86.10;;;;;;4787730;29;20028;-92
2021/05/27 01:08:13;;;;;;;3.00;1.48;;;19.10;85.80;;;;;;4787406;29;20572;-91
2021/05/27 01:10:39;;;;;;;5.03;1.85;;;19.20;85.40;;;;;;4798600;29;20039;-91
2021/05/27 01:13:05;;;;;;;7.05;2.00;;;19.20;85.10;;;;;;4790667;29;20027;-91
2021/05/27 01:15:32;;;;;;;4.70;1.40;;;19.30;85.00;;;;;;4805299;29;20548;-91
2021/05/27 01:18:11;;;;;;;5.95;2.25;;;19.20;85.10;;;;;;4805588;29;20039;-91
2021/05/27 01:20:39;;;;;;;3.63;1.92;;;19.10;85.30;;;;;;4805465;29;20447;-92
2021/05/27 01:23:07;;;;;;;7.10;1.52;;;19.00;85.50;;;;;;4790364;29;20481;-91
2021/05/27 01:25:33;;;;;;;4.90;2.17;;;19.00;86.20;;;;;;4805541;29;20098;-91
2021/05/27 01:27:59;;;;;;;3.75;2.10;;;18.90;85.90;;;;;;4805062;29;20066;-91
2021/05/27 01:30:26;;;;;;;4.00;2.15;;;18.90;86.00;;;;;;4805229;29;20039;-90
2021/05/27 01:33:10;;;;;;;3.70;2.17;;;18.90;85.90;;;;;;4805423;29;20151;-92
2021/05/27 01:35:36;;;;;;;6.78;1.73;;;18.90;85.80;;;;;;4805000;29;20097;-92
2021/05/27 01:38:12;;;;;;;2.88;1.50;;;19.00;85.80;;;;;;4805501;29;20039;-92
2021/05/27 01:40:39;;;;;;;1.40;1.25;;;19.00;85.50;;;;;;4814745;29;20031;-90
2021/05/27 01:43:06;;;;;;;4.40;1.90;;;19.00;85.60;;;;;;4828462;29;20021;-92
2021/05/27 01:45:32;;;;;;;1.27;1.10;;;19.00;85.70;;;;;;4805371;29;20039;-92
2021/05/27 01:48:00;;;;;;;3.13;1.40;;;18.90;85.80;;;;;;4804693;29;20043;-92
2021/05/27 01:50:27;;;;;;;3.65;1.00;;;18.90;85.80;;;;;;4804853;29;20032;-91
2021/05/27 01:52:59;;;;;;;3.60;1.70;;;18.90;86.00;;;;;;4804956;29;20054;-91
2021/05/27 01:55:27;;;;;;;6.13;1.40;;;18.80;86.10;;;;;;4804604;29;20047;-92
2021/05/27 01:57:55;;;;;;;2.72;1.25;;;18.80;86.40;;;;;;4804718;29;20035;-92
2021/05/27 02:00:27;;;;;;;3.35;1.33;;;18.70;86.40;;;;;;4795482;29;20038;-91
2021/05/27 02:02:54;;;;;;;2.97;1.13;;;18.70;86.50;;;;;;4805177;29;20039;-90
2021/05/27 02:05:24;;;;;;;5.85;1.80;;;18.70;86.60;;;;;;4789723;29;20401;-92
2021/05/27 02:07:50;;;;;;;8.68;2.10;;;18.50;86.90;;;;;;4788474;29;20039;-92
2021/05/27 02:10:26;;;;;;;2.42;1.52;;;18.50;87.30;;;;;;4789950;29;20035;-93
2021/05/27 02:12:55;;;;;;;3.10;1.30;;;18.40;87.50;;;;;;4789734;29;20034;-91
2021/05/27 02:15:21;;;;;;;4.80;1.90;;;18.30;87.60;;;;;;4789433;29;20142;-92
2021/05/27 02:17:47;;;;;;;4.07;1.45;;;18.20;87.50;;;;;;4789282;29;20451;-92
2021/05/27 02:20:13;;;;;;;3.67;1.58;;;18.20;87.70;;;;;;4793488;29;20035;-92
2021/05/27 02:22:40;;;;;;;4.65;1.30;;;18.20;87.80;;;;;;4774562;29;20109;-91
2021/05/27 02:25:14;;;;;;;4.03;1.33;;;18.10;88.00;;;;;;4790253;29;20463;-91
2021/05/27 02:27:43;;;;;;;5.28;1.70;;;18.10;88.10;;;;;;4789562;29;20040;-91
2021/05/27 02:30:12;;;;;;;3.70;1.77;;;18.10;87.90;;;;;;4789398;29;20038;-91
2021/05/27 02:32:40;;;;;;;2.90;0.95;;;18.10;87.60;;;;;;4789492;29;20400;-91
2021/05/27 02:35:09;;;;;;;2.60;1.33;;;18.10;87.20;;;;;;4789310;29;20505;-92
2021/05/27 02:37:35;;;;;;;4.65;1.45;;;18.10;87.10;;;;;;4774468;29;20032;-92
2021/05/27 02:40:05;;;;;;;9.82;1.75;;;18.10;87.00;;;;;;4788204;29;20143;-92
2021/05/27 02:42:32;;;;;;;5.50;1.50;;;18.00;86.90;;;;;;4804016;29;20042;-91
2021/05/27 02:44:58;;;;;;;2.58;1.52;;;18.00;86.90;;;;;;4804275;29;20043;-92
2021/05/27 02:47:25;;;;;;;3.35;1.20;;;18.10;86.80;;;;;;4804222;29;20039;-92
2021/05/27 02:49:52;;;;;;;3.28;0.90;;;18.00;86.90;;;;;;4805619;29;20043;-91
2021/05/27 02:52:18;;;;;;;3.00;1.27;;;17.90;86.90;;;;;;4827534;29;20030;-91
2021/05/27 02:54:45;;;;;;;2.40;1.00;;;17.90;86.90;;;;;;4796723;29;20039;-92
2021/05/27 02:57:12;;;;;;;1.83;1.08;;;17.90;86.80;;;;;;4788796;29;20080;-92
2021/05/27 02:59:38;;;;;;;3.85;1.35;;;17.80;86.70;;;;;;4803801;29;20031;-92
2021/05/27 03:02:05;;;;;;;2.00;1.30;;;17.80;86.60;;;;;;4788560;29;20418;-92
2021/05/27 03:04:35;;;;;;;2.55;1.73;;;17.80;86.50;;;;;;4803285;29;20035;-92
2021/05/27 03:07:01;;;;;;;4.68;1.10;;;17.80;86.30;;;;;;4803448;29;20062;-91
2021/05/27 03:09:27;;;;;;;3.60;1.52;;;17.80;86.40;;;;;;4803628;29;20466;-92
2021/05/27 03:11:54;;;;;;;3.90;1.25;;;17.80;86.30;;;;;;4803410;29;20035;-93
2021/05/27 03:14:22;;;;;;;4.90;1.50;;;17.80;86.20;;;;;;4803746;29;20901;-92
2021/05/27 03:16:53;;;;;;;4.45;1.25;;;17.80;86.20;;;;;;4803435;29;20046;-93
2021/05/27 03:19:20;;;;;;;2.83;1.35;;;17.80;85.90;;;;;;4802896;29;20039;-92
2021/05/27 03:21:47;;;;;;;2.10;1.17;;;17.80;85.80;;;;;;4803177;29;20037;-92
2021/05/27 03:24:16;;;;;;;2.72;1.15;;;17.80;85.80;;;;;;4788320;29;20039;-92
2021/05/27 03:26:42;;;;;;;2.55;1.08;;;17.80;85.70;;;;;;4788353;29;20047;-92
2021/05/27 03:29:14;;;;;;;5.78;1.50;;;17.80;85.60;;;;;;4788326;29;20111;-91
2021/05/27 03:31:41;;;;;;;1.50;0.90;;;17.80;85.50;;;;;;4788571;29;20035;-92
2021/05/27 03:34:08;;;;;;;4.20;1.23;;;17.80;85.40;;;;;;4788128;29;20035;-91
2021/05/27 03:36:34;;;;;;;4.57;1.58;;;17.90;85.40;;;;;;4788170;29;20063;-92
2021/05/27 03:39:00;;;;;;;4.50;1.20;;;17.80;85.20;;;;;;4788156;29;20036;-92
2021/05/27 03:41:26;;;;;;;1.73;1.00;;;17.80;85.10;;;;;;4803172;29;20118;-92
2021/05/27 03:43:58;;;;;;;2.97;1.20;;;17.90;84.90;;;;;;4798941;29;20046;-92
2021/05/27 03:46:25;;;;;;;1.98;1.02;;;17.90;84.70;;;;;;4788469;29;20108;-92
2021/05/27 03:48:52;;;;;;;3.10;1.23;;;17.90;84.50;;;;;;4788944;29;20126;-92
2021/05/27 03:51:18;;;;;;;3.13;1.00;;;17.90;84.50;;;;;;4789056;29;20039;-91
2021/05/27 03:53:45;;;;;;;1.08;0.93;;;18.00;84.30;;;;;;4788034;29;20126;-91
2021/05/27 03:56:11;;;;;;;2.35;0.93;;;18.00;84.00;;;;;;4788087;29;20051;-91
2021/05/27 04:01:32;;;;;;;3.92;1.42;;;18.00;84.00;;;;;;4804352;29;20088;-84
2021/05/27 04:07:10;;;;;;;5.05;1.30;;;18.10;84.30;;;;;;4796966;29;20092;-92
2021/05/27 04:09:40;;;;;;;3.28;1.20;;;18.20;84.20;;;;;;4772739;30;20056;-91
2021/05/27 04:17:38;;;;;;;3.28;1.10;;;18.30;84.10;;;;;;4801873;29;20039;-86
2021/05/27 04:20:05;;;;;;;3.05;1.20;;;18.30;83.80;;;;;;4801383;29;20541;-80
2021/05/27 04:22:32;;;;;;;3.55;1.30;;;18.30;84.00;;;;;;4786534;29;20043;-80
2021/05/27 04:24:57;;;;;;;4.68;1.27;;;18.40;83.80;;;;;;4800890;29;20054;-82
2021/05/27 04:27:23;;;;;;;4.00;1.50;;;18.40;83.80;;;;;;4785881;29;20500;-79
2021/05/27 04:29:53;;;;;;;3.20;1.40;;;18.40;83.80;;;;;;4785889;29;20361;-82
2021/05/27 04:35:05;;;;;;;5.10;1.30;;;18.50;83.80;;;;;;4803984;29;20216;-82
2021/05/27 04:37:31;;;;;;;3.30;1.27;;;18.50;83.30;;;;;;4804365;29;20042;-82
2021/05/27 04:39:57;;;;;;;5.00;1.55;;;18.60;83.30;;;;;;4802219;29;20027;-81
2021/05/27 04:42:23;;;;;;;4.28;1.27;;;18.60;83.50;;;;;;4771032;30;20040;-79
2021/05/27 04:44:48;;;;;;;2.85;1.50;;;18.70;83.20;;;;;;4775439;30;20095;-81
2021/05/27 04:47:14;;;;;;;3.60;1.10;;;18.70;83.30;;;;;;4790390;29;20067;-80
2021/05/27 04:49:40;;;;;;;3.05;1.38;;;18.70;83.40;;;;;;4790348;29;20311;-80
2021/05/27 04:52:07;;;;;;;11.17;1.90;;;18.80;83.50;;;;;;4790391;29;20115;-81
2021/05/27 04:54:33;;;;;;;3.42;1.55;;;18.80;83.50;;;;;;4790275;29;20046;-80
2021/05/27 04:56:59;;;;;;;3.60;1.55;;;18.90;83.40;;;;;;4789358;29;20039;-79
2021/05/27 04:59:25;;;;;;;2.97;1.73;;;18.90;83.20;;;;;;4789946;29;20118;-79
2021/05/27 05:01:51;;;;;;;2.08;1.10;;;18.90;83.20;;;;;;4815045;29;20137;-81
2021/05/27 05:04:17;;;;;;;5.00;1.33;;;19.00;82.90;;;;;;4811539;29;20071;-81
2021/05/27 05:06:43;;;;;;;4.28;1.20;;;19.00;83.10;;;;;;4789686;29;20038;-79
2021/05/27 05:09:08;;;;;;;5.97;1.48;;;19.10;82.70;;;;;;4790157;29;20541;-79
2021/05/27 05:11:34;;;;;;;2.28;1.48;;;19.20;82.60;;;;;;4803889;29;20493;-86
2021/05/27 05:14:00;;;;;;;9.33;2.00;;;19.30;82.20;;;;;;4791012;29;20038;-89
2021/05/27 05:16:26;;;;;;;2.50;0.90;;;19.40;82.00;;;;;;4785224;29;20040;-87
2021/05/27 05:18:52;;;;;;;2.80;1.20;;;19.40;81.90;;;;;;4790403;29;20281;-85
2021/05/27 05:21:18;;;;;;;4.23;1.53;;;19.50;81.70;;;;;;4789376;29;20547;-85
2021/05/27 05:23:44;;;;;;;35.67;16.13;;;19.60;81.90;;;;;;4789435;30;20096;-85
2021/05/27 05:26:10;;;;;;;26.30;13.48;;;19.60;81.80;;;;;;4789809;29;20281;-85
2021/05/27 05:28:36;;;;;;;10.60;4.82;;;19.70;81.60;;;;;;4803765;29;20043;-84
2021/05/27 05:31:02;;;;;;;5.80;2.90;;;19.80;81.00;;;;;;4789789;29;20035;-84
2021/05/27 05:33:28;;;;;;;2.30;1.40;;;19.90;80.90;;;;;;4789757;29;20042;-84
2021/05/27 05:35:54;;;;;;;3.37;1.70;;;19.90;80.30;;;;;;4789548;29;20564;-83
2021/05/27 05:38:20;;;;;;;4.80;1.30;;;20.00;80.10;;;;;;4789286;29;20291;-83
2021/05/27 05:40:46;;;;;;;5.10;1.35;;;20.10;79.90;;;;;;4789492;29;20778;-84
2021/05/27 05:43:11;;;;;;;2.95;1.48;;;20.10;78.70;;;;;;4803360;29;20043;-84
2021/05/27 05:45:37;;;;;;;4.03;1.30;;;20.20;78.20;;;;;;4789591;29;20035;-83
2021/05/27 05:48:04;;;;;;;2.93;1.07;;;20.20;78.80;;;;;;4788973;29;20778;-83
2021/05/27 05:50:49;;;;;;;2.75;1.08;;;20.30;78.10;;;;;;4788271;29;20300;-84
2021/05/27 05:53:21;;;;;;;5.28;0.88;;;20.30;77.90;;;;;;4789792;29;20427;-82
2021/05/27 05:55:49;;;;;;;2.15;1.10;;;20.40;77.70;;;;;;4803552;29;20125;-82
2021/05/27 05:58:15;;;;;;;6.22;2.40;;;20.50;78.10;;;;;;4787887;29;20036;-82
2021/05/27 06:00:41;;;;;;;2.97;1.10;;;20.50;77.80;;;;;;4803158;29;20035;-84
2021/05/27 06:03:07;;;;;;;2.47;1.20;;;20.60;77.50;;;;;;4802854;29;20039;-82
2021/05/27 06:05:52;;;;;;;3.55;1.33;;;20.70;77.40;;;;;;4789267;29;20030;-80
2021/05/27 06:08:32;;;;;;;3.10;0.80;;;20.80;76.30;;;;;;4802104;29;20043;-80
2021/05/27 06:10:58;;;;;;;1.55;1.15;;;20.80;76.50;;;;;;4787873;29;20493;-77
2021/05/27 06:13:24;;;;;;;2.20;1.13;;;20.90;75.70;;;;;;4787886;29;20400;-78
2021/05/27 06:15:50;;;;;;;3.05;1.05;;;21.00;75.80;;;;;;4787960;29;20414;-79
2021/05/27 06:18:16;;;;;;;2.87;1.07;;;21.00;75.80;;;;;;4788425;29;20500;-79
2021/05/27 06:20:56;;;;;;;3.95;1.00;;;21.10;76.20;;;;;;4787351;29;20295;-82
2021/05/27 06:23:27;;;;;;;7.40;1.30;;;21.10;76.10;;;;;;4802208;29;20370;-84
2021/05/27 06:25:53;;;;;;;5.82;1.25;;;21.20;75.80;;;;;;4802094;29;20074;-80
2021/05/27 06:28:19;;;;;;;5.40;1.30;;;21.30;76.20;;;;;;4788418;29;20062;-79
2021/05/27 06:30:45;;;;;;;6.13;1.60;;;21.20;75.50;;;;;;4788599;29;20400;-79
2021/05/27 06:33:11;;;;;;;6.00;1.57;;;21.30;75.70;;;;;;4802428;29;20039;-79
2021/05/27 06:35:37;;;;;;;2.72;1.17;;;21.40;75.40;;;;;;4802067;29;20710;-79
2021/05/27 06:38:03;;;;;;;4.53;1.02;;;21.40;75.70;;;;;;4788662;29;20477;-80
2021/05/27 06:40:30;;;;;;;3.80;1.70;;;21.50;75.50;;;;;;4788074;29;20533;-79
2021/05/27 06:42:56;;;;;;;3.65;1.17;;;21.60;75.10;;;;;;4787259;29;20426;-80
2021/05/27 06:45:23;;;;;;;4.97;1.00;;;21.60;75.50;;;;;;4788205;29;20134;-79
2021/05/27 06:47:50;;;;;;;2.53;1.00;;;21.70;74.80;;;;;;4788501;29;20054;-76
2021/05/27 06:50:32;;;;;;;7.13;1.15;;;21.80;74.40;;;;;;4786665;29;20040;-76
2021/05/27 06:53:02;;;;;;;5.85;1.38;;;21.80;74.00;;;;;;4787125;29;20036;-75
2021/05/27 06:55:28;;;;;;;4.13;1.40;;;21.90;73.20;;;;;;4787828;29;20023;-75
2021/05/27 06:57:54;;;;;;;4.35;1.50;;;22.00;73.40;;;;;;4787977;29;20118;-76
2021/05/27 07:00:21;;;;;;;3.05;1.30;;;22.10;72.50;;;;;;4801632;29;20111;-76
2021/05/27 07:02:47;;;;;;;5.63;1.52;;;22.00;72.90;;;;;;4787561;29;20031;-80
2021/05/27 07:05:14;;;;;;;9.02;1.40;;;22.10;73.40;;;;;;4801981;29;20060;-78
2021/05/27 07:07:40;;;;;;;2.25;1.40;;;22.40;73.00;;;;;;4786899;29;20039;-79
2021/05/27 07:10:07;;;;;;;4.90;1.20;;;22.40;72.00;;;;;;4801530;29;20561;-78
2021/05/27 07:12:33;;;;;;;4.70;1.50;;;22.40;69.60;;;;;;4784549;29;20066;-77
2021/05/27 07:15:00;;;;;;;4.15;2.00;;;22.50;69.30;;;;;;4787618;29;20035;-79
2021/05/27 07:17:25;;;;;;;3.25;1.40;;;22.60;68.80;;;;;;4787905;29;20038;-81
2021/05/27 07:19:53;;;;;;;2.97;1.00;;;22.60;69.00;;;;;;4786501;29;20397;-78
2021/05/27 07:22:19;;;;;;;4.97;1.42;;;22.70;67.90;;;;;;4787647;29;20129;-80
2021/05/27 07:24:47;;;;;;;3.22;0.88;;;22.80;68.70;;;;;;4787718;29;20044;-80
2021/05/27 07:27:13;;;;;;;4.38;2.22;;;22.90;67.40;;;;;;4801060;29;20043;-79
2021/05/27 07:29:42;;;;;;;3.28;2.35;;;22.90;66.40;;;;;;4787113;29;20116;-81
2021/05/27 07:32:08;;;;;;;3.88;2.05;;;23.00;65.90;;;;;;4800635;29;20030;-82
2021/05/27 07:34:34;;;;;;;9.07;2.20;;;23.10;65.20;;;;;;4801537;29;20039;-82
2021/05/27 07:37:00;;;;;;;3.95;2.15;;;23.10;66.40;;;;;;4801293;29;20141;-82
2021/05/27 07:39:26;;;;;;;6.85;1.58;;;23.10;66.70;;;;;;4786539;29;20035;-82
2021/05/27 07:41:52;;;;;;;2.60;1.33;;;23.20;65.80;;;;;;4783215;29;20275;-82
2021/05/27 07:44:18;;;;;;;3.80;1.30;;;23.20;64.00;;;;;;4782780;30;20289;-82
2021/05/27 07:46:45;;;;;;;4.65;1.33;;;23.10;64.00;;;;;;4801056;29;20292;-81
2021/05/27 07:49:11;;;;;;;3.47;1.15;;;23.20;61.60;;;;;;4774038;29;20134;-80
2021/05/27 07:51:37;;;;;;;3.00;1.73;;;23.30;65.40;;;;;;4787225;29;20126;-81
2021/05/27 07:54:03;;;;;;;5.50;1.92;;;23.40;64.40;;;;;;4787201;29;20066;-81
2021/05/27 07:56:29;;;;;;;3.05;1.33;;;23.50;62.10;;;;;;4786291;30;20077;-80
2021/05/27 07:58:55;;;;;;;3.13;1.40;;;23.50;64.20;;;;;;4801084;29;20043;-81
2021/05/27 08:01:21;;;;;;;11.38;6.00;;;23.20;64.60;;;;;;4800870;29;20054;-81
2021/05/27 08:03:47;;;;;;;4.70;1.63;;;23.30;64.60;;;;;;4787177;29;20062;-81
2021/05/27 08:06:13;;;;;;;4.50;1.87;;;23.40;63.30;;;;;;4787209;29;20276;-81
2021/05/27 08:08:39;;;;;;;4.20;1.33;;;23.50;65.50;;;;;;4787439;29;20782;-84
2021/05/27 08:11:05;;;;;;;2.40;1.50;;;23.70;64.10;;;;;;4801049;29;20405;-84
2021/05/27 08:13:31;;;;;;;8.23;2.03;;;23.80;66.90;;;;;;4786845;29;20307;-83
2021/05/27 08:15:57;;;;;;;5.73;1.80;;;23.90;65.90;;;;;;4787269;29;20054;-83
2021/05/27 08:18:23;;;;;;;4.40;1.25;;;24.00;65.20;;;;;;4800883;29;20315;-83
2021/05/27 08:20:49;;;;;;;3.80;1.10;;;24.10;64.40;;;;;;4801097;29;20496;-83
2021/05/27 08:23:15;;;;;;;1.85;1.08;;;24.10;59.60;;;;;;4800633;29;20039;-83
2021/05/27 08:25:41;;;;;;;2.80;1.00;;;24.00;61.10;;;;;;4798538;29;20038;-83
2021/05/27 08:28:06;;;;;;;6.43;1.00;;;24.20;58.70;;;;;;4798457;29;20286;-86
2021/05/27 08:30:32;;;;;;;7.13;1.30;;;24.20;58.00;;;;;;4772403;30;20291;-89
2021/05/27 08:32:58;;;;;;;3.33;1.47;;;24.40;60.00;;;;;;4802424;29;20379;-86
2021/05/27 08:35:25;;;;;;;3.92;1.50;;;24.60;63.80;;;;;;4803100;29;20055;-89
2021/05/27 08:37:51;;;;;;;19.23;4.22;;;24.60;58.70;;;;;;4794435;29;20051;-87
2021/05/27 08:40:17;;;;;;;122.23;15.83;;;24.80;61.70;;;;;;4804715;29;20120;-86
2021/05/27 08:42:43;;;;;;;2.50;1.10;;;24.90;57.70;;;;;;4794001;29;20342;-87
2021/05/27 08:45:09;;;;;;;1.92;1.02;;;24.90;57.50;;;;;;4787398;29;20295;-87
2021/05/27 08:47:36;;;;;;;3.35;0.93;;;24.60;57.50;;;;;;4787849;29;20031;-87
2021/05/27 08:50:05;;;;;;;4.10;1.23;;;24.40;57.30;;;;;;4787081;29;20031;-87
2021/05/27 08:52:31;;;;;;;2.65;0.80;;;24.40;60.70;;;;;;4788043;29;20211;-87
2021/05/27 08:54:57;;;;;;;2.45;0.80;;;24.30;59.90;;;;;;4801289;29;20088;-86
2021/05/27 08:57:23;;;;;;;2.38;0.90;;;24.40;59.70;;;;;;4802672;29;20035;-90
2021/05/27 08:59:49;;;;;;;2.17;0.97;;;24.40;61.30;;;;;;4798420;29;20158;-87
2021/05/27 09:02:15;;;;;;;6.33;1.43;;;24.30;62.10;;;;;;4786537;30;20281;-85
2021/05/27 09:04:41;;;;;;;2.83;0.95;;;24.20;63.40;;;;;;4787810;29;20107;-90
2021/05/27 09:07:09;;;;;;;2.37;1.00;;;24.20;65.40;;;;;;4799277;29;20147;-88
2021/05/27 09:09:55;;;;;;;2.22;1.40;;;24.20;63.40;;;;;;4803891;29;20304;-86
2021/05/27 09:12:28;;;;;;;3.65;1.58;;;24.30;63.60;;;;;;4786640;29;20070;-92
2021/05/27 09:14:54;;;;;;;5.07;1.83;;;24.40;65.00;;;;;;4777139;29;20050;-91
2021/05/27 09:17:20;;;;;;;2.78;0.88;;;24.20;64.20;;;;;;4774131;30;20119;-93
2021/05/27 09:20:17;;;;;;;10.02;1.42;;;24.40;64.70;;;;;;4778240;30;20027;-86
2021/05/27 09:22:45;;;;;;;3.30;0.90;;;24.60;64.60;;;;;;4807762;29;20107;-91
2021/05/27 09:25:29;;;;;;;4.13;0.75;;;24.60;63.70;;;;;;4801446;29;20031;-91
2021/05/27 09:27:56;;;;;;;4.85;1.20;;;24.40;63.70;;;;;;4790034;29;20097;-84
2021/05/27 09:30:23;;;;;;;4.18;0.95;;;24.20;64.00;;;;;;4788430;29;20070;-84
2021/05/27 09:32:51;;;;;;;3.75;1.00;;;24.20;64.10;;;;;;4803960;29;20401;-83
2021/05/27 09:35:18;;;;;;;1.85;1.00;;;24.20;65.10;;;;;;4802894;29;20047;-87
2021/05/27 09:37:50;;;;;;;5.90;1.65;;;24.40;65.30;;;;;;4796060;29;20034;-87
2021/05/27 09:40:29;;;;;;;5.20;1.70;;;24.50;65.50;;;;;;4822419;29;20366;-88
2021/05/27 09:42:56;;;;;;;3.75;1.35;;;24.50;65.00;;;;;;4822084;29;20050;-87
2021/05/27 09:45:23;;;;;;;5.18;1.45;;;24.50;65.80;;;;;;4798677;29;20499;-85
2021/05/27 09:47:49;;;;;;;10.00;1.50;;;24.60;64.40;;;;;;4789517;29;20038;-87
2021/05/27 09:50:15;;;;;;;14.98;8.40;;;24.80;65.10;;;;;;4803507;29;20055;-85
2021/05/27 09:52:41;;;;;;;7.05;2.70;;;24.90;64.20;;;;;;4805900;29;20568;-84
2021/05/27 09:55:11;;;;;;;5.57;2.30;;;25.20;63.70;;;;;;4805599;29;20035;-86
2021/05/27 09:57:39;;;;;;;3.75;1.90;;;25.50;63.50;;;;;;4791995;29;20031;-87
2021/05/27 10:00:06;;;;;;;3.30;1.80;;;25.20;62.70;;;;;;4805540;29;20464;-88
2021/05/27 10:02:35;;;;;;;7.95;3.10;;;25.30;62.70;;;;;;4790356;29;20023;-86
2021/05/27 10:05:06;;;;;;;15.60;8.48;;;25.30;63.80;;;;;;4803975;29;20042;-84
2021/05/27 10:07:52;;;;;;;65.13;10.48;;;25.50;64.20;;;;;;4789578;29;20054;-86
2021/05/27 10:10:21;;;;;;;8.70;3.72;;;25.60;62.90;;;;;;4788866;29;20497;-83
2021/05/27 10:12:50;;;;;;;6.00;1.95;;;25.50;62.40;;;;;;4802979;29;20036;-84
2021/05/27 10:15:18;;;;;;;4.13;2.10;;;25.30;61.80;;;;;;4789097;29;20381;-86
2021/05/27 10:17:47;;;;;;;6.07;2.70;;;25.30;62.70;;;;;;4788064;29;20020;-83
2021/05/27 10:20:16;;;;;;;4.10;1.85;;;25.30;63.10;;;;;;4787777;29;20038;-85
2021/05/27 10:22:45;;;;;;;11.02;3.45;;;25.20;64.80;;;;;;4803238;29;20039;-85
2021/05/27 10:25:16;;;;;;;8.15;2.95;;;25.00;63.30;;;;;;4788883;29;20023;-85
2021/05/27 10:27:45;;;;;;;4.32;1.65;;;24.90;63.50;;;;;;4788849;29;20039;-87
2021/05/27 10:30:12;;;;;;;1.85;0.95;;;25.20;63.40;;;;;;4789075;29;20036;-86
2021/05/27 10:32:45;;;;;;;3.45;0.93;;;25.40;64.20;;;;;;4789464;29;20102;-84
2021/05/27 10:35:12;;;;;;;2.17;0.75;;;25.50;64.10;;;;;;4788008;29;20035;-83
2021/05/27 10:37:38;;;;;;;2.83;1.23;;;25.60;62.20;;;;;;4787112;29;20491;-82
2021/05/27 10:40:19;;;;;;;5.18;1.52;;;25.80;62.70;;;;;;4787265;29;20039;-84
2021/05/27 10:42:57;;;;;;;6.40;1.80;;;26.20;62.60;;;;;;4791885;29;20492;-87
2021/05/27 10:45:36;;;;;;;4.28;1.40;;;26.50;58.40;;;;;;4793384;29;20377;-85
2021/05/27 10:48:14;;;;;;;2.22;1.20;;;26.50;57.90;;;;;;4785706;29;20047;-80
2021/05/27 10:53:37;;;;;;;4.45;1.42;;;26.80;58.70;;;;;;4785465;29;20488;-86
2021/05/27 10:56:12;;;;;;;44.35;6.78;;;26.70;55.20;;;;;;4799339;29;20035;-88
2021/05/27 10:59:08;;;;;;;4.22;1.52;;;26.90;56.60;;;;;;4785274;29;20036;-86
2021/05/27 11:01:35;;;;;;;2.33;1.00;;;26.80;58.40;;;;;;4787664;29;20472;-84
2021/05/27 11:04:05;;;;;;;7.50;1.55;;;26.60;53.90;;;;;;4787520;29;20043;-84
2021/05/27 11:06:41;;;;;;;9.40;1.52;;;26.70;56.00;;;;;;4800582;29;20031;-82
2021/05/27 11:09:10;;;;;;;26.02;4.53;;;26.80;56.00;;;;;;4786162;29;20039;-83
2021/05/27 11:11:48;;;;;;;9.32;3.67;;;27.40;57.80;;;;;;4801398;29;20041;-82
2021/05/27 11:14:25;;;;;;;7.22;3.78;;;28.00;58.60;;;;;;4787344;29;20035;-84
2021/05/27 11:17:15;;;;;;;5.57;2.00;;;27.70;54.30;;;;;;4800281;29;20046;-84
2021/05/27 11:19:55;;;;;;;4.03;2.28;;;27.50;54.60;;;;;;4801092;29;20043;-82
2021/05/27 11:23:09;;;;;;;5.15;2.40;;;27.50;56.20;;;;;;4786993;29;20054;-82
2021/05/27 11:25:16;;;;;;;29.25;4.78;;;27.60;54.90;;;;;;4787467;29;20054;-85
2021/05/27 11:28:00;;;;;;;2.83;1.98;;;27.60;55.00;;;;;;4800902;29;20043;-84
2021/05/27 11:30:36;;;;;;;4.68;2.50;;;27.60;56.30;;;;;;4795100;29;20056;-85
2021/05/27 11:33:05;;;;;;;5.15;3.63;;;27.50;58.00;;;;;;4783997;29;20070;-85
2021/05/27 11:35:37;;;;;;;54.13;9.50;;;27.70;57.80;;;;;;4800932;29;20063;-85
2021/05/27 11:38:04;;;;;;;11.55;2.65;;;27.80;56.80;;;;;;4800404;29;20035;-86
2021/05/27 11:40:34;;;;;;;17.83;3.28;;;27.80;56.70;;;;;;4801979;29;20035;-86
2021/05/27 11:43:00;;;;;;;5.13;2.28;;;27.60;56.30;;;;;;4800303;29;20039;-86
2021/05/27 11:45:28;;;;;;;4.82;1.60;;;27.70;56.80;;;;;;4801485;29;20035;-87
2021/05/27 11:48:19;;;;;;;4.30;1.88;;;28.00;57.00;;;;;;4786294;29;20557;-86
2021/05/27 11:50:46;;;;;;;7.47;3.30;;;27.80;57.50;;;;;;4786361;29;20556;-87
2021/05/27 11:53:13;;;;;;;5.18;3.25;;;27.70;57.50;;;;;;4766899;30;20064;-84
2021/05/27 11:55:39;;;;;;;14.77;2.10;;;28.00;58.20;;;;;;4768870;30;20134;-86
2021/05/27 11:58:06;;;;;;;8.40;1.48;;;27.90;57.40;;;;;;4768992;30;20040;-88
2021/05/27 12:00:32;;;;;;;4.03;2.30;;;27.80;58.10;;;;;;4782496;29;20122;-86
2021/05/27 12:02:59;;;;;;;4.78;1.95;;;27.70;57.20;;;;;;4769135;30;20026;-87
2021/05/27 12:05:26;;;;;;;3.90;1.48;;;27.50;57.30;;;;;;4768813;30;20031;-87
2021/05/27 12:08:05;;;;;;;4.68;1.85;;;27.40;56.90;;;;;;4783479;30;20048;-87
2021/05/27 12:10:34;;;;;;;2.67;1.70;;;27.10;57.10;;;;;;4767782;30;20096;-86
2021/05/27 12:13:01;;;;;;;3.75;1.33;;;27.40;57.50;;;;;;4769436;30;20040;-87
2021/05/27 12:15:28;;;;;;;3.00;1.02;;;27.80;57.20;;;;;;4782378;29;20439;-87
2021/05/27 12:17:57;;;;;;;4.25;1.58;;;28.20;56.20;;;;;;4782240;29;20054;-84
2021/05/27 12:20:35;;;;;;;3.08;1.50;;;28.50;57.30;;;;;;4768865;30;20036;-85
2021/05/27 12:23:08;;;;;;;7.10;1.48;;;28.50;57.80;;;;;;4768114;30;20047;-85
2021/05/27 12:25:40;;;;;;;3.65;1.20;;;28.60;58.00;;;;;;4768706;30;20046;-86
2021/05/27 12:28:12;;;;;;;3.83;1.55;;;28.60;57.40;;;;;;4769166;30;20035;-85
2021/05/27 12:30:41;;;;;;;4.47;1.17;;;28.60;57.80;;;;;;4768127;30;20067;-85
2021/05/27 12:33:09;;;;;;;2.58;1.17;;;28.20;56.80;;;;;;4768035;30;20035;-85
2021/05/27 12:35:38;;;;;;;1.58;0.90;;;28.00;58.10;;;;;;4768514;30;20055;-87
2021/05/27 12:38:07;;;;;;;1.88;1.02;;;27.80;58.20;;;;;;4769742;30;20028;-85
2021/05/27 12:40:40;;;;;;;2.67;0.98;;;27.80;57.60;;;;;;4767856;30;20046;-89
2021/05/27 12:43:30;;;;;;;1.48;0.95;;;27.70;57.90;;;;;;4766699;30;20031;-86
2021/05/27 12:45:58;;;;;;;2.38;0.80;;;27.90;58.10;;;;;;4779482;30;20039;-87
2021/05/27 12:48:24;;;;;;;3.28;1.02;;;27.50;56.80;;;;;;4782441;29;20096;-87
2021/05/27 12:50:50;;;;;;;3.35;1.00;;;27.80;57.10;;;;;;4768166;30;20055;-85
2021/05/27 12:53:28;;;;;;;3.37;0.80;;;27.90;57.00;;;;;;4785879;30;20063;-85
2021/05/27 12:55:56;;;;;;;2.38;0.95;;;27.60;56.70;;;;;;4785689;30;20516;-86
2021/05/27 12:59:07;;;;;;;22.23;3.55;;;27.70;57.10;;;;;;4787867;29;20040;-89
2021/05/27 13:01:36;;;;;;;5.05;1.50;;;28.00;58.00;;;;;;4778878;30;20075;-88
2021/05/27 13:04:04;;;;;;;1.23;0.77;;;28.20;57.00;;;;;;4776843;30;20043;-88
2021/05/27 13:06:40;;;;;;;3.13;1.23;;;27.90;55.90;;;;;;4791005;29;20043;-88
2021/05/27 13:09:15;;;;;;;4.05;1.42;;;27.50;57.40;;;;;;4777556;30;20039;-89
2021/05/27 13:11:58;;;;;;;127.05;13.98;;;27.30;57.50;;;;;;4792695;29;20057;-89
2021/05/27 13:14:24;;;;;;;5.43;1.05;;;27.10;56.80;;;;;;4777113;30;20032;-90